sensor_id;sensor_type;location;lat;lon;timestamp;temperature;humidity
16968;DHT22;64862;54.398;10.126;2022-12-11T11:43:47;1.30;99.90
16968;DHT22;64862;54.398;10.126;2022-12-11T11:46:22;1.20;99.90
16968;DHT22;64862;54.398;10.126;2022-12-11T11:48:57;1.30;99.90
16968;DHT22;64862;54.398;10.126;2022-12-11T11:51:29;1.30;99.90
16968;DHT22;64862;54.398;10.126;2022-12-11T11:54:01;1.40;99.90
16968;DHT22;64862;54.398;10.126;2022-12-11T11:56:31;1.50;99.90
16968;DHT22;64862;54.398;10.126;2022-12-11T11:59:05;1.50;99.90
16968;DHT22;64862;54.398;10.126;2022-12-11T12:01:34;1.50;99.90
16968;DHT22;64862;54.398;10.126;2022-12-11T12:04:02;1.50;99.90
16968;DHT22;64862;54.398;10.126;2022-12-11T12:06:49;1.50;99.90
16968;DHT22;64862;54.398;10.126;2022-12-11T12:09:32;1.60;99.90
16968;DHT22;64862;54.398;10.126;2022-12-11T12:12:15;1.60;99.90
16968;DHT22;64862;54.398;10.126;2022-12-11T12:14:56;1.50;99.90
16968;DHT22;64862;54.398;10.126;2022-12-11T12:17:33;1.50;99.90
16968;DHT22;64862;54.398;10.126;2022-12-11T12:20:09;1.60;99.90
16968;DHT22;64862;54.398;10.126;2022-12-11T12:22:50;1.60;99.90
16968;DHT22;64862;54.398;10.126;2022-12-11T12:25:25;1.60;99.90
16968;DHT22;64862;54.398;10.126;2022-12-11T12:27:55;1.60;99.90
16968;DHT22;64862;54.398;10.126;2022-12-11T12:30:30;1.60;99.90
16968;DHT22;64862;54.398;10.126;2022-12-11T12:33:14;1.60;99.90
16968;DHT22;64862;54.398;10.126;2022-12-11T12:35:51;1.70;99.90
16968;DHT22;64862;54.398;10.126;2022-12-11T12:38:25;1.70;99.90
16968;DHT22;64862;54.398;10.126;2022-12-11T12:41:03;1.60;99.90
16968;DHT22;64862;54.398;10.126;2022-12-11T12:44:04;1.60;99.90
16968;DHT22;64862;54.398;10.126;2022-12-11T12:46:38;1.60;99.90
16968;DHT22;64862;54.398;10.126;2022-12-11T12:49:13;1.60;99.90
16968;DHT22;64862;54.398;10.126;2022-12-11T12:51:41;1.60;99.90
16968;DHT22;64862;54.398;10.126;2022-12-11T12:54:14;1.60;99.90
16968;DHT22;64862;54.398;10.126;2022-12-11T12:56:46;1.60;99.90
16968;DHT22;64862;54.398;10.126;2022-12-11T12:59:19;1.60;99.90
16968;DHT22;64862;54.398;10.126;2022-12-11T13:01:49;1.50;99.90
16968;DHT22;64862;54.398;10.126;2022-12-11T13:04:35;1.50;99.90
16968;DHT22;64862;54.398;10.126;2022-12-11T13:07:25;1.50;99.90
16968;DHT22;64862;54.398;10.126;2022-12-11T13:09:59;1.50;99.90
16968;DHT22;64862;54.398;10.126;2022-12-11T13:12:48;1.60;99.90
16968;DHT22;64862;54.398;10.126;2022-12-11T13:15:42;1.60;99.90
16968;DHT22;64862;54.398;10.126;2022-12-11T13:18:30;1.60;99.90
16968;DHT22;64862;54.398;10.126;2022-12-11T13:20:59;1.60;99.90
16968;DHT22;64862;54.398;10.126;2022-12-11T13:23:28;1.60;99.90
16968;DHT22;64862;54.398;10.126;2022-12-11T13:25:57;1.60;99.90
16968;DHT22;64862;54.398;10.126;2022-12-11T13:28:30;1.60;99.90
16968;DHT22;64862;54.398;10.126;2022-12-11T13:31:07;1.60;99.90
16968;DHT22;64862;54.398;10.126;2022-12-11T13:33:50;1.60;99.90
16968;DHT22;64862;54.398;10.126;2022-12-11T13:36:27;1.70;99.90
16968;DHT22;64862;54.398;10.126;2022-12-11T13:38:59;1.70;99.90
16968;DHT22;64862;54.398;10.126;2022-12-11T13:41:27;1.80;99.90
16968;DHT22;64862;54.398;10.126;2022-12-11T13:43:54;1.80;99.90
16968;DHT22;64862;54.398;10.126;2022-12-11T13:46:27;1.90;99.90
16968;DHT22;64862;54.398;10.126;2022-12-11T13:48:56;1.90;99.90
16968;DHT22;64862;54.398;10.126;2022-12-11T13:51:29;1.80;99.90
16968;DHT22;64862;54.398;10.126;2022-12-11T13:54:13;1.90;99.90
16968;DHT22;64862;54.398;10.126;2022-12-11T13:56:55;1.80;99.90
16968;DHT22;64862;54.398;10.126;2022-12-11T13:59:28;1.80;99.90
16968;DHT22;64862;54.398;10.126;2022-12-11T14:01:58;1.70;99.90
16968;DHT22;64862;54.398;10.126;2022-12-11T14:04:26;1.70;99.90
16968;DHT22;64862;54.398;10.126;2022-12-11T14:07:00;1.60;99.90
16968;DHT22;64862;54.398;10.126;2022-12-11T14:09:27;1.60;99.90
16968;DHT22;64862;54.398;10.126;2022-12-11T14:11:55;1.60;99.90
16968;DHT22;64862;54.398;10.126;2022-12-11T14:14:30;1.60;99.90
16968;DHT22;64862;54.398;10.126;2022-12-11T14:17:00;1.50;99.90
16968;DHT22;64862;54.398;10.126;2022-12-11T14:19:28;1.50;99.90
16968;DHT22;64862;54.398;10.126;2022-12-11T14:21:59;1.50;99.90
16968;DHT22;64862;54.398;10.126;2022-12-11T14:24:28;1.50;99.90
16968;DHT22;64862;54.398;10.126;2022-12-11T14:26:56;1.40;99.90
16968;DHT22;64862;54.398;10.126;2022-12-11T14:29:25;1.40;99.90
16968;DHT22;64862;54.398;10.126;2022-12-11T14:31:55;1.40;99.90
16968;DHT22;64862;54.398;10.126;2022-12-11T14:34:25;1.40;99.90
16968;DHT22;64862;54.398;10.126;2022-12-11T14:36:54;1.40;99.90
16968;DHT22;64862;54.398;10.126;2022-12-11T14:39:25;1.40;99.90
16968;DHT22;64862;54.398;10.126;2022-12-11T14:42:00;1.40;99.90
16968;DHT22;64862;54.398;10.126;2022-12-11T14:44:31;1.50;99.90
16968;DHT22;64862;54.398;10.126;2022-12-11T14:47:02;1.50;99.90
16968;DHT22;64862;54.398;10.126;2022-12-11T14:49:38;1.50;99.90
16968;DHT22;64862;54.398;10.126;2022-12-11T14:52:14;1.60;99.90
16968;DHT22;64862;54.398;10.126;2022-12-11T14:54:46;1.60;99.90
16968;DHT22;64862;54.398;10.126;2022-12-11T14:57:18;1.60;99.90
16968;DHT22;64862;54.398;10.126;2022-12-11T14:59:47;1.50;99.90
16968;DHT22;64862;54.398;10.126;2022-12-11T15:02:34;1.50;99.90
16968;DHT22;64862;54.398;10.126;2022-12-11T15:05:12;1.50;99.90
16968;DHT22;64862;54.398;10.126;2022-12-11T15:07:41;1.50;99.90
16968;DHT22;64862;54.398;10.126;2022-12-11T15:10:23;1.40;99.90
16968;DHT22;64862;54.398;10.126;2022-12-11T15:12:52;1.40;99.90
16968;DHT22;64862;54.398;10.126;2022-12-11T15:15:19;1.30;99.90
16968;DHT22;64862;54.398;10.126;2022-12-11T15:17:48;1.20;99.90
16968;DHT22;64862;54.398;10.126;2022-12-11T15:20:23;1.20;99.90
16968;DHT22;64862;54.398;10.126;2022-12-11T15:22:50;1.10;99.90
16968;DHT22;64862;54.398;10.126;2022-12-11T15:25:21;1.00;99.90
16968;DHT22;64862;54.398;10.126;2022-12-11T15:27:50;0.90;99.90
16968;DHT22;64862;54.398;10.126;2022-12-11T15:30:30;0.90;99.90
16968;DHT22;64862;54.398;10.126;2022-12-11T15:33:14;0.80;99.90
16968;DHT22;64862;54.398;10.126;2022-12-11T15:35:54;0.80;99.90
16968;DHT22;64862;54.398;10.126;2022-12-11T15:38:27;0.70;99.90
16968;DHT22;64862;54.398;10.126;2022-12-11T15:40:56;0.60;99.90
16968;DHT22;64862;54.398;10.126;2022-12-11T15:43:24;0.50;99.90
16968;DHT22;64862;54.398;10.126;2022-12-11T15:45:54;0.50;99.90
16968;DHT22;64862;54.398;10.126;2022-12-11T15:48:22;0.50;99.90
16968;DHT22;64862;54.398;10.126;2022-12-11T15:50:49;0.40;99.90
16968;DHT22;64862;54.398;10.126;2022-12-11T15:53:16;0.40;99.90
16968;DHT22;64862;54.398;10.126;2022-12-11T15:55:43;0.30;99.90
16968;DHT22;64862;54.398;10.126;2022-12-11T15:58:14;0.20;99.90
16968;DHT22;64862;54.398;10.126;2022-12-11T16:00:43;0.20;99.90
16968;DHT22;64862;54.398;10.126;2022-12-11T16:03:12;0.20;99.90
16968;DHT22;64862;54.398;10.126;2022-12-11T16:05:40;0.10;99.90
16968;DHT22;64862;54.398;10.126;2022-12-11T16:08:09;0.00;99.90
16968;DHT22;64862;54.398;10.126;2022-12-11T16:10:40;0.00;99.90
16968;DHT22;64862;54.398;10.126;2022-12-11T16:13:07;0.00;99.90
16968;DHT22;64862;54.398;10.126;2022-12-11T16:15:36;0.00;99.90
16968;DHT22;64862;54.398;10.126;2022-12-11T16:18:05;-0.10;99.90
16968;DHT22;64862;54.398;10.126;2022-12-11T16:20:33;-0.10;99.90
16968;DHT22;64862;54.398;10.126;2022-12-11T16:23:01;-0.20;99.90
16968;DHT22;64862;54.398;10.126;2022-12-11T16:25:28;-0.20;99.90
16968;DHT22;64862;54.398;10.126;2022-12-11T16:27:57;-0.20;99.90
16968;DHT22;64862;54.398;10.126;2022-12-11T16:30:25;-0.20;99.90
16968;DHT22;64862;54.398;10.126;2022-12-11T16:32:54;-0.20;99.90
16968;DHT22;64862;54.398;10.126;2022-12-11T16:35:21;-0.20;99.90
16968;DHT22;64862;54.398;10.126;2022-12-11T16:37:49;-0.20;99.90
16968;DHT22;64862;54.398;10.126;2022-12-11T16:40:16;-0.10;99.90
16968;DHT22;64862;54.398;10.126;2022-12-11T16:42:44;0.00;99.90
16968;DHT22;64862;54.398;10.126;2022-12-11T16:45:18;0.10;99.90
16968;DHT22;64862;54.398;10.126;2022-12-11T16:47:48;0.10;99.90
16968;DHT22;64862;54.398;10.126;2022-12-11T16:50:17;0.20;99.90
16968;DHT22;64862;54.398;10.126;2022-12-11T16:52:44;0.20;99.90
16968;DHT22;64862;54.398;10.126;2022-12-11T16:55:12;0.20;99.90
16968;DHT22;64862;54.398;10.126;2022-12-11T16:57:40;0.30;99.90
16968;DHT22;64862;54.398;10.126;2022-12-11T17:00:09;0.40;99.90
16968;DHT22;64862;54.398;10.126;2022-12-11T17:02:38;0.50;99.90
16968;DHT22;64862;54.398;10.126;2022-12-11T17:05:05;0.50;99.90
16968;DHT22;64862;54.398;10.126;2022-12-11T17:07:34;0.50;99.90
16968;DHT22;64862;54.398;10.126;2022-12-11T17:10:01;0.50;99.90
16968;DHT22;64862;54.398;10.126;2022-12-11T17:12:28;0.60;99.90
16968;DHT22;64862;54.398;10.126;2022-12-11T17:14:55;0.60;99.90
16968;DHT22;64862;54.398;10.126;2022-12-11T17:17:23;0.70;99.90
16968;DHT22;64862;54.398;10.126;2022-12-11T17:19:50;0.80;99.90
16968;DHT22;64862;54.398;10.126;2022-12-11T17:22:17;0.80;99.90
16968;DHT22;64862;54.398;10.126;2022-12-11T17:24:45;0.80;99.90
16968;DHT22;64862;54.398;10.126;2022-12-11T17:27:12;0.80;99.90
16968;DHT22;64862;54.398;10.126;2022-12-11T17:29:39;0.80;99.90
16968;DHT22;64862;54.398;10.126;2022-12-11T17:32:07;0.80;99.90
16968;DHT22;64862;54.398;10.126;2022-12-11T17:34:36;0.90;99.90
16968;DHT22;64862;54.398;10.126;2022-12-11T17:37:03;1.00;99.90
16968;DHT22;64862;54.398;10.126;2022-12-11T17:39:30;1.00;99.90
16968;DHT22;64862;54.398;10.126;2022-12-11T17:41:58;1.00;99.90
16968;DHT22;64862;54.398;10.126;2022-12-11T17:44:28;1.00;99.90
16968;DHT22;64862;54.398;10.126;2022-12-11T17:46:56;1.00;99.90
16968;DHT22;64862;54.398;10.126;2022-12-11T17:49:24;0.90;99.90
16968;DHT22;64862;54.398;10.126;2022-12-11T17:51:51;0.90;99.90
16968;DHT22;64862;54.398;10.126;2022-12-11T17:54:20;1.00;99.90
16968;DHT22;64862;54.398;10.126;2022-12-11T17:56:47;0.90;99.90
16968;DHT22;64862;54.398;10.126;2022-12-11T17:59:15;0.90;99.90
16968;DHT22;64862;54.398;10.126;2022-12-11T18:01:44;0.90;99.90
16968;DHT22;64862;54.398;10.126;2022-12-11T18:04:11;1.00;99.90
16968;DHT22;64862;54.398;10.126;2022-12-11T18:06:38;1.00;99.90
16968;DHT22;64862;54.398;10.126;2022-12-11T18:09:05;1.10;99.90
16968;DHT22;64862;54.398;10.126;2022-12-11T18:11:32;1.00;99.90
16968;DHT22;64862;54.398;10.126;2022-12-11T18:13:59;1.00;99.90
16968;DHT22;64862;54.398;10.126;2022-12-11T18:16:29;1.10;99.90
16968;DHT22;64862;54.398;10.126;2022-12-11T18:18:57;1.10;99.90
16968;DHT22;64862;54.398;10.126;2022-12-11T18:21:26;1.00;99.90
16968;DHT22;64862;54.398;10.126;2022-12-11T18:23:54;1.00;99.90
16968;DHT22;64862;54.398;10.126;2022-12-11T18:26:21;1.00;99.90
16968;DHT22;64862;54.398;10.126;2022-12-11T18:28:49;1.00;99.90
16968;DHT22;64862;54.398;10.126;2022-12-11T18:31:18;1.00;99.90
16968;DHT22;64862;54.398;10.126;2022-12-11T18:33:47;1.10;99.90
16968;DHT22;64862;54.398;10.126;2022-12-11T18:36:16;1.00;99.90
16968;DHT22;64862;54.398;10.126;2022-12-11T18:38:43;1.00;99.90
16968;DHT22;64862;54.398;10.126;2022-12-11T18:41:17;1.00;99.90
16968;DHT22;64862;54.398;10.126;2022-12-11T18:43:45;1.00;99.90
16968;DHT22;64862;54.398;10.126;2022-12-11T18:46:16;0.90;99.90
16968;DHT22;64862;54.398;10.126;2022-12-11T18:48:45;1.00;99.90
16968;DHT22;64862;54.398;10.126;2022-12-11T18:51:14;0.90;99.90
16968;DHT22;64862;54.398;10.126;2022-12-11T18:53:43;0.90;99.90
16968;DHT22;64862;54.398;10.126;2022-12-11T18:56:14;1.00;99.90
16968;DHT22;64862;54.398;10.126;2022-12-11T18:58:45;0.90;99.90
16968;DHT22;64862;54.398;10.126;2022-12-11T19:01:17;0.90;99.90
16968;DHT22;64862;54.398;10.126;2022-12-11T19:03:44;0.80;99.90
16968;DHT22;64862;54.398;10.126;2022-12-11T19:06:15;0.80;99.90
16968;DHT22;64862;54.398;10.126;2022-12-11T19:08:43;0.80;99.90
16968;DHT22;64862;54.398;10.126;2022-12-11T19:11:13;0.80;99.90
16968;DHT22;64862;54.398;10.126;2022-12-11T19:13:40;0.70;99.90
16968;DHT22;64862;54.398;10.126;2022-12-11T19:16:13;0.70;99.90
16968;DHT22;64862;54.398;10.126;2022-12-11T19:18:41;0.70;99.90
16968;DHT22;64862;54.398;10.126;2022-12-11T19:21:09;0.70;99.90
16968;DHT22;64862;54.398;10.126;2022-12-11T19:23:39;0.70;99.90
16968;DHT22;64862;54.398;10.126;2022-12-11T19:26:09;0.70;99.90
16968;DHT22;64862;54.398;10.126;2022-12-11T19:28:36;0.60;99.90
16968;DHT22;64862;54.398;10.126;2022-12-11T19:31:08;0.70;99.90
16968;DHT22;64862;54.398;10.126;2022-12-11T19:33:36;0.70;99.90
16968;DHT22;64862;54.398;10.126;2022-12-11T19:36:04;0.70;99.90
16968;DHT22;64862;54.398;10.126;2022-12-11T19:38:33;0.70;99.90
16968;DHT22;64862;54.398;10.126;2022-12-11T19:41:05;0.70;99.90
16968;DHT22;64862;54.398;10.126;2022-12-11T19:43:32;0.60;99.90
16968;DHT22;64862;54.398;10.126;2022-12-11T19:46:00;0.60;99.90
16968;DHT22;64862;54.398;10.126;2022-12-11T19:48:29;0.60;99.90
16968;DHT22;64862;54.398;10.126;2022-12-11T19:51:03;0.60;99.90
16968;DHT22;64862;54.398;10.126;2022-12-11T19:53:30;0.50;99.90
16968;DHT22;64862;54.398;10.126;2022-12-11T19:55:57;0.50;99.90
16968;DHT22;64862;54.398;10.126;2022-12-11T19:58:26;0.50;99.90
16968;DHT22;64862;54.398;10.126;2022-12-11T20:00:59;0.40;99.90
16968;DHT22;64862;54.398;10.126;2022-12-11T20:03:29;0.40;99.90
16968;DHT22;64862;54.398;10.126;2022-12-11T20:05:59;0.40;99.90
16968;DHT22;64862;54.398;10.126;2022-12-11T20:08:26;0.30;99.90
16968;DHT22;64862;54.398;10.126;2022-12-11T20:10:53;0.30;99.90
16968;DHT22;64862;54.398;10.126;2022-12-11T20:13:20;0.30;99.90
16968;DHT22;64862;54.398;10.126;2022-12-11T20:15:49;0.30;99.90
16968;DHT22;64862;54.398;10.126;2022-12-11T20:18:16;0.30;99.90
16968;DHT22;64862;54.398;10.126;2022-12-11T20:20:43;0.30;99.90
16968;DHT22;64862;54.398;10.126;2022-12-11T20:23:10;0.20;99.90
16968;DHT22;64862;54.398;10.126;2022-12-11T20:25:37;0.20;99.90
16968;DHT22;64862;54.398;10.126;2022-12-11T20:28:05;0.20;99.90
16968;DHT22;64862;54.398;10.126;2022-12-11T20:30:33;0.10;99.90
16968;DHT22;64862;54.398;10.126;2022-12-11T20:33:01;0.00;99.90
16968;DHT22;64862;54.398;10.126;2022-12-11T20:35:28;0.00;99.90
16968;DHT22;64862;54.398;10.126;2022-12-11T20:37:55;-0.10;99.90
16968;DHT22;64862;54.398;10.126;2022-12-11T20:40:23;-0.10;99.90
16968;DHT22;64862;54.398;10.126;2022-12-11T20:42:50;-0.20;99.90
16968;DHT22;64862;54.398;10.126;2022-12-11T20:45:17;-0.20;99.90
16968;DHT22;64862;54.398;10.126;2022-12-11T20:47:44;-0.20;99.90
16968;DHT22;64862;54.398;10.126;2022-12-11T20:50:13;-0.20;99.90
16968;DHT22;64862;54.398;10.126;2022-12-11T20:52:42;-0.20;99.90
16968;DHT22;64862;54.398;10.126;2022-12-11T20:55:10;-0.30;99.90
16968;DHT22;64862;54.398;10.126;2022-12-11T20:57:37;-0.20;99.90
16968;DHT22;64862;54.398;10.126;2022-12-11T21:00:04;-0.20;99.90
16968;DHT22;64862;54.398;10.126;2022-12-11T21:02:34;-0.20;99.90
16968;DHT22;64862;54.398;10.126;2022-12-11T21:05:01;-0.20;99.90
16968;DHT22;64862;54.398;10.126;2022-12-11T21:07:29;-0.20;99.90
16968;DHT22;64862;54.398;10.126;2022-12-11T21:09:56;-0.20;99.90
16968;DHT22;64862;54.398;10.126;2022-12-11T21:12:23;-0.20;99.90
16968;DHT22;64862;54.398;10.126;2022-12-11T21:14:50;-0.20;99.90
16968;DHT22;64862;54.398;10.126;2022-12-11T21:17:17;-0.10;99.90
16968;DHT22;64862;54.398;10.126;2022-12-11T21:19:44;-0.10;99.90
16968;DHT22;64862;54.398;10.126;2022-12-11T21:22:11;-0.10;99.90
16968;DHT22;64862;54.398;10.126;2022-12-11T21:24:39;-0.10;99.90
16968;DHT22;64862;54.398;10.126;2022-12-11T21:27:08;0.00;99.90
16968;DHT22;64862;54.398;10.126;2022-12-11T21:29:35;0.00;99.90
16968;DHT22;64862;54.398;10.126;2022-12-11T21:32:04;0.10;99.90
16968;DHT22;64862;54.398;10.126;2022-12-11T21:34:31;0.20;99.90
16968;DHT22;64862;54.398;10.126;2022-12-11T21:37:02;0.20;99.90
16968;DHT22;64862;54.398;10.126;2022-12-11T21:39:29;0.30;99.90
16968;DHT22;64862;54.398;10.126;2022-12-11T21:41:57;0.30;99.90
16968;DHT22;64862;54.398;10.126;2022-12-11T21:44:26;0.40;99.90
16968;DHT22;64862;54.398;10.126;2022-12-11T21:46:55;0.40;99.90
16968;DHT22;64862;54.398;10.126;2022-12-11T21:49:22;0.50;99.90
16968;DHT22;64862;54.398;10.126;2022-12-11T21:51:49;0.40;99.90
16968;DHT22;64862;54.398;10.126;2022-12-11T21:54:17;0.40;99.90
16968;DHT22;64862;54.398;10.126;2022-12-11T21:56:45;0.50;99.90
16968;DHT22;64862;54.398;10.126;2022-12-11T21:59:13;0.50;99.90
16968;DHT22;64862;54.398;10.126;2022-12-11T22:01:42;0.50;99.90
16968;DHT22;64862;54.398;10.126;2022-12-11T22:04:11;0.50;99.90
16968;DHT22;64862;54.398;10.126;2022-12-11T22:06:39;0.50;99.90
16968;DHT22;64862;54.398;10.126;2022-12-11T22:09:09;0.50;99.90
16968;DHT22;64862;54.398;10.126;2022-12-11T22:11:37;0.60;99.90
16968;DHT22;64862;54.398;10.126;2022-12-11T22:14:05;0.60;99.90
16968;DHT22;64862;54.398;10.126;2022-12-11T22:16:33;0.60;99.90
16968;DHT22;64862;54.398;10.126;2022-12-11T22:19:01;0.60;99.90
16968;DHT22;64862;54.398;10.126;2022-12-11T22:21:28;0.60;99.90
16968;DHT22;64862;54.398;10.126;2022-12-11T22:23:58;0.70;99.90
16968;DHT22;64862;54.398;10.126;2022-12-11T22:26:27;0.70;99.90
16968;DHT22;64862;54.398;10.126;2022-12-11T22:28:55;0.80;99.90
16968;DHT22;64862;54.398;10.126;2022-12-11T22:31:25;0.70;99.90
16968;DHT22;64862;54.398;10.126;2022-12-11T22:33:53;0.60;99.90
16968;DHT22;64862;54.398;10.126;2022-12-11T22:36:21;0.70;99.90
16968;DHT22;64862;54.398;10.126;2022-12-11T22:38:48;0.70;99.90
16968;DHT22;64862;54.398;10.126;2022-12-11T22:41:19;0.80;99.90
16968;DHT22;64862;54.398;10.126;2022-12-11T22:43:48;0.80;99.90
16968;DHT22;64862;54.398;10.126;2022-12-11T22:46:19;0.90;99.90
16968;DHT22;64862;54.398;10.126;2022-12-11T22:48:46;0.90;99.90
16968;DHT22;64862;54.398;10.126;2022-12-11T22:51:15;0.90;99.90
16968;DHT22;64862;54.398;10.126;2022-12-11T22:53:42;0.80;99.90
16968;DHT22;64862;54.398;10.126;2022-12-11T22:56:10;0.80;99.90
16968;DHT22;64862;54.398;10.126;2022-12-11T22:58:38;0.80;99.90
16968;DHT22;64862;54.398;10.126;2022-12-11T23:01:08;0.70;99.90
16968;DHT22;64862;54.398;10.126;2022-12-11T23:03:35;0.80;99.90
16968;DHT22;64862;54.398;10.126;2022-12-11T23:06:04;0.90;99.90
16968;DHT22;64862;54.398;10.126;2022-12-11T23:08:34;1.00;99.90
16968;DHT22;64862;54.398;10.126;2022-12-11T23:11:01;1.00;99.90
16968;DHT22;64862;54.398;10.126;2022-12-11T23:13:28;1.00;99.90
16968;DHT22;64862;54.398;10.126;2022-12-11T23:15:55;1.10;99.90
16968;DHT22;64862;54.398;10.126;2022-12-11T23:18:22;1.10;99.90
16968;DHT22;64862;54.398;10.126;2022-12-11T23:20:51;1.10;99.90
16968;DHT22;64862;54.398;10.126;2022-12-11T23:23:18;1.10;99.90
16968;DHT22;64862;54.398;10.126;2022-12-11T23:25:50;1.20;99.90
16968;DHT22;64862;54.398;10.126;2022-12-11T23:28:17;1.20;99.90
16968;DHT22;64862;54.398;10.126;2022-12-11T23:30:45;1.20;99.90
16968;DHT22;64862;54.398;10.126;2022-12-11T23:33:12;1.20;99.90
16968;DHT22;64862;54.398;10.126;2022-12-11T23:35:39;1.30;99.90
16968;DHT22;64862;54.398;10.126;2022-12-11T23:38:06;1.30;99.90
16968;DHT22;64862;54.398;10.126;2022-12-11T23:40:33;1.30;99.90
16968;DHT22;64862;54.398;10.126;2022-12-11T23:43:02;1.30;99.90
16968;DHT22;64862;54.398;10.126;2022-12-11T23:45:29;1.40;99.90
16968;DHT22;64862;54.398;10.126;2022-12-11T23:47:56;1.50;99.90
16968;DHT22;64862;54.398;10.126;2022-12-11T23:50:24;1.50;99.90
16968;DHT22;64862;54.398;10.126;2022-12-11T23:52:51;1.30;99.90
16968;DHT22;64862;54.398;10.126;2022-12-11T23:55:18;1.40;99.90
16968;DHT22;64862;54.398;10.126;2022-12-11T23:57:45;1.40;99.90
